This is the latest recevied weather packets stored in our database for station/object KG4QXL-1. If no packets are shown the sender has not sent any weather packets the latest 10 day(s).
| Time | Temp. | Humidity | Pressure | Rain* | Wind** | Luminosity | Snow |
|---|---|---|---|---|---|---|---|
| 1777409158 | 19.44° C | 66% | 1021.9 hPa | 0 mm | - | 192 W/m² | - |
| 1777404358 | 19.44° C | 64% | 1022.1 hPa | 0 mm | - | 171 W/m² | - |
| 1777401958 | 20° C | 62% | 1022.2 hPa | 0 mm | - | 327 W/m² | - |
| 1777397778 | 18.33° C | 65% | 1022.6 hPa | 0 mm | - | 314 W/m² | - |
| 1777397158 | 17.78° C | 65% | 1022.9 hPa | 0 mm | - | 298 W/m² | - |
| 1777385758 | 12.78° C | 82% | 1025.7 hPa | 0 mm | - | 100 W/m² | - |
| 1777383378 | 12.22° C | 85% | 1025.5 hPa | 0 mm | - | 182 W/m² | - |
| 1777380959 | 11.11° C | 91% | 1026.6 hPa | 0 mm | - | 99 W/m² | - |
| 1777380379 | 10.56° C | 93% | 1026.5 hPa | 0 mm | - | 96 W/m² | - |
| 1777379758 | 10.56° C | 95% | 1026.6 hPa | 0 mm | - | 61 W/m² | - |
| 1777379178 | 10.56° C | 96% | 1026.9 hPa | 0 mm | - | 58 W/m² | - |
| 1777374378 | 10° C | 88% | 1027.3 hPa | 0 mm | - | 8 W/m² | - |
| 1777370779 | 11.11° C | 70% | 1026.4 hPa | 0 mm | - | 0 W/m² | - |
| 1777368378 | 11.11° C | 67% | 1026.6 hPa | 0 mm | - | 0 W/m² | - |
| 1777361758 | 10.56° C | 74% | 1028.5 hPa | 0 mm | - | 0 W/m² | - |
| 1777361158 | 9.44° C | 78% | 1028.7 hPa | 0 mm | - | 0 W/m² | - |
| 1777360579 | 8.89° C | 82% | 1028.9 hPa | 0 mm | - | 0 W/m² | - |
| 1777353978 | 8.89° C | 77% | 1029.2 hPa | 0 mm | - | 0 W/m² | - |
| 1777353358 | 9.44° C | 75% | 1029.1 hPa | 0 mm | - | 0 W/m² | - |
| 1777352758 | 9.44° C | 74% | 1029.2 hPa | 0 mm | - | 0 W/m² | - |
| 1777350959 | 10° C | 73% | 1029.2 hPa | 0 mm | - | 0 W/m² | - |
| 1777347958 | 12.22° C | 64% | 1029.6 hPa | 0 mm | - | 0 W/m² | - |
| 1777340158 | 12.22° C | 71% | 1029.8 hPa | 0 mm | - | 0 W/m² | - |
| 1777338959 | 11.67° C | 72% | 1029.7 hPa | 0 mm | - | 0 W/m² | - |
| 1777337158 | 12.78° C | 69% | 1029.3 hPa | 0 mm | - | 0 W/m² | - |
* Rain latest hour (hover to see other rain measurements)
** Current wind speed in m/s (hover to see current wind gust speed)